Time;durP1;ratioP1;P1;durP2;ratioP2;P2;SDS_P1;SDS_P2;PMS_P1;PMS_P2;Temp;Humidity;BMP_temperature;BMP_pressure;BME280_temperature;BME280_humidity;BME280_pressure;Samples;Min_cycle;Max_cycle;Signal;HPM_P1;HPM_P2
2023/09/11 00:01:32;;;;;;;;;;;20.80;86.40;;;;;;5040309;28;19974;-88
2023/09/11 00:03:58;;;;;;;;;;;20.80;86.60;;;;;;5024519;28;19917;-88
2023/09/11 00:06:25;;;;;;;;;;;20.80;86.60;;;;;;5018126;28;19913;-88
2023/09/11 00:08:50;;;;;;;;;;;20.70;86.80;;;;;;5017169;28;20367;-88
2023/09/11 00:11:16;;;;;;;;;;;20.80;86.70;;;;;;5023551;28;19909;-88
2023/09/11 00:13:41;;;;;;;;;;;20.80;86.20;;;;;;5012820;28;19923;-87
2023/09/11 00:16:07;;;;;;;;;;;20.80;86.30;;;;;;5040753;28;19913;-88
2023/09/11 00:18:32;;;;;;;;;;;20.70;86.40;;;;;;5024092;28;20681;-87
2023/09/11 00:20:58;;;;;;;;;;;20.70;86.50;;;;;;5038166;28;19921;-88
2023/09/11 00:23:23;;;;;;;;;;;20.70;86.40;;;;;;5032134;28;19959;-88
2023/09/11 00:25:49;;;;;;;;;;;20.60;86.60;;;;;;5022445;28;20469;-87
2023/09/11 00:28:14;;;;;;;;;;;20.60;86.50;;;;;;5021446;28;19975;-88
2023/09/11 00:30:40;;;;;;;;;;;20.70;86.60;;;;;;5016181;28;20013;-87
2023/09/11 00:33:05;;;;;;;;;;;20.60;86.40;;;;;;5023818;28;19916;-88
2023/09/11 00:35:31;;;;;;;;;;;20.50;86.70;;;;;;5019992;28;19952;-88
2023/09/11 00:37:56;;;;;;;;;;;20.50;86.70;;;;;;5041799;28;20519;-88
2023/09/11 00:40:22;;;;;;;;;;;20.40;86.80;;;;;;5019992;28;19921;-88
2023/09/11 00:42:47;;;;;;;;;;;20.40;86.80;;;;;;5038484;28;19956;-88
2023/09/11 00:45:13;;;;;;;;;;;20.40;86.60;;;;;;5032463;28;20357;-88
2023/09/11 00:47:39;;;;;;;;;;;20.40;86.70;;;;;;5021769;28;20290;-89
2023/09/11 00:50:06;;;;;;;;;;;20.40;86.80;;;;;;5015833;28;19952;-88
2023/09/11 00:52:32;;;;;;;;;;;20.40;86.80;;;;;;5019786;28;20005;-89
2023/09/11 00:54:58;;;;;;;;;;;20.30;86.60;;;;;;5016141;28;19925;-88
2023/09/11 00:57:24;;;;;;;;;;;20.30;86.60;;;;;;5032211;28;19982;-88
2023/09/11 00:59:49;;;;;;;;;;;20.30;86.80;;;;;;5044748;28;19925;-89
2023/09/11 01:02:15;;;;;;;;;;;20.30;86.80;;;;;;5058512;28;19901;-88
2023/09/11 01:04:41;;;;;;;;;;;20.20;86.80;;;;;;5041429;28;19918;-88
2023/09/11 01:07:06;;;;;;;;;;;20.30;86.90;;;;;;5014983;28;20175;-88
2023/09/11 01:09:32;;;;;;;;;;;20.30;86.80;;;;;;5016421;28;19917;-88
2023/09/11 01:11:58;;;;;;;;;;;20.30;87.00;;;;;;5024764;28;19909;-88
2023/09/11 01:14:23;;;;;;;;;;;20.30;87.20;;;;;;5017787;28;19921;-88
2023/09/11 01:16:58;;;;;;;;;;;20.40;87.20;;;;;;5036626;28;19909;-88
2023/09/11 01:19:43;;;;;;;;;;;20.40;87.00;;;;;;5037707;28;19997;-88
2023/09/11 01:22:14;;;;;;;;;;;20.40;87.20;;;;;;5027315;28;19929;-88
2023/09/11 01:24:50;;;;;;;;;;;20.50;86.60;;;;;;5049309;28;19960;-88
2023/09/11 01:27:15;;;;;;;;;;;20.50;86.00;;;;;;5038767;28;19975;-88
2023/09/11 01:29:41;;;;;;;;;;;20.60;85.10;;;;;;5016243;28;19949;-88
2023/09/11 01:32:08;;;;;;;;;;;20.70;84.50;;;;;;5018718;28;19968;-88
2023/09/11 01:34:34;;;;;;;;;;;20.50;85.20;;;;;;5041089;28;19913;-87
2023/09/11 01:36:59;;;;;;;;;;;20.50;85.40;;;;;;5033144;28;20463;-88
2023/09/11 01:39:25;;;;;;;;;;;20.50;85.70;;;;;;5030203;28;19920;-88
2023/09/11 01:41:53;;;;;;;;;;;20.40;85.80;;;;;;5040458;28;19958;-88
2023/09/11 01:44:21;;;;;;;;;;;20.50;85.80;;;;;;5027149;28;19920;-88
2023/09/11 01:46:47;;;;;;;;;;;20.50;85.30;;;;;;5027552;28;19999;-88
2023/09/11 01:49:13;;;;;;;;;;;20.50;85.40;;;;;;5028587;28;20050;-88
2023/09/11 01:51:40;;;;;;;;;;;20.60;84.90;;;;;;5022638;28;19920;-88
2023/09/11 01:54:06;;;;;;;;;;;20.60;85.00;;;;;;5032165;28;20420;-89
2023/09/11 01:56:31;;;;;;;;;;;20.60;84.80;;;;;;5022874;28;19909;-88
2023/09/11 01:58:57;;;;;;;;;;;20.60;84.40;;;;;;5050286;28;20062;-88
2023/09/11 02:01:23;;;;;;;;;;;20.60;84.80;;;;;;5026241;28;19996;-89
2023/09/11 02:03:48;;;;;;;;;;;20.60;84.40;;;;;;5021683;28;19913;-88
2023/09/11 02:06:14;;;;;;;;;;;20.60;84.40;;;;;;5020982;28;19920;-88
2023/09/11 02:08:39;;;;;;;;;;;20.60;84.80;;;;;;5014969;28;19924;-87
2023/09/11 02:11:07;;;;;;;;;;;20.60;84.30;;;;;;5030195;28;20369;-88
2023/09/11 02:13:32;;;;;;;;;;;20.60;84.30;;;;;;5025034;28;19928;-88
2023/09/11 02:15:57;;;;;;;;;;;20.50;84.50;;;;;;5057663;28;19909;-88
2023/09/11 02:18:23;;;;;;;;;;;20.50;84.80;;;;;;5029808;28;19912;-88
2023/09/11 02:20:48;;;;;;;;;;;20.50;84.80;;;;;;5044187;28;19950;-89
2023/09/11 02:23:15;;;;;;;;;;;20.50;84.80;;;;;;5039708;28;19913;-88
2023/09/11 02:25:41;;;;;;;;;;;20.50;84.30;;;;;;5013861;28;19959;-88
2023/09/11 02:28:06;;;;;;;;;;;20.60;84.00;;;;;;5031960;28;19913;-88
2023/09/11 02:30:32;;;;;;;;;;;20.60;84.30;;;;;;5021306;28;19917;-88
2023/09/11 02:32:57;;;;;;;;;;;20.50;84.40;;;;;;5031919;28;19912;-88
2023/09/11 02:35:23;;;;;;;;;;;20.50;84.70;;;;;;5047682;28;19913;-87
2023/09/11 02:37:48;;;;;;;;;;;20.50;84.80;;;;;;5035570;28;20012;-88
2023/09/11 02:40:14;;;;;;;;;;;20.50;84.70;;;;;;5021408;28;20000;-89
2023/09/11 02:42:39;;;;;;;;;;;20.50;84.90;;;;;;5052686;28;19958;-88
2023/09/11 02:45:05;;;;;;;;;;;20.50;84.60;;;;;;5026244;28;19912;-88
2023/09/11 02:47:30;;;;;;;;;;;20.50;84.50;;;;;;5030840;28;19913;-88
2023/09/11 02:49:56;;;;;;;;;;;20.60;84.30;;;;;;5019186;28;20000;-88
2023/09/11 02:52:21;;;;;;;;;;;20.60;84.00;;;;;;5026901;28;19932;-88
2023/09/11 02:54:47;;;;;;;;;;;20.60;83.70;;;;;;5025981;28;19918;-88
2023/09/11 02:57:12;;;;;;;;;;;20.50;84.10;;;;;;5033147;28;19920;-88
2023/09/11 02:59:38;;;;;;;;;;;20.50;84.10;;;;;;5026535;28;19924;-88
2023/09/11 03:02:03;;;;;;;;;;;20.50;83.90;;;;;;5029909;28;19938;-88
2023/09/11 03:04:29;;;;;;;;;;;20.50;83.80;;;;;;5045310;28;19913;-87
2023/09/11 03:06:54;;;;;;;;;;;20.50;83.80;;;;;;5023347;28;19965;-88
2023/09/11 03:09:20;;;;;;;;;;;20.40;84.10;;;;;;5018205;28;19920;-88
2023/09/11 03:11:45;;;;;;;;;;;20.40;84.50;;;;;;5015922;28;19921;-88
2023/09/11 03:14:13;;;;;;;;;;;20.40;84.40;;;;;;5022353;28;19919;-88
2023/09/11 03:16:39;;;;;;;;;;;20.40;84.20;;;;;;5047074;28;19909;-89
2023/09/11 03:19:04;;;;;;;;;;;20.30;84.20;;;;;;5047874;28;19913;-88
2023/09/11 03:21:29;;;;;;;;;;;20.40;83.90;;;;;;5014539;28;19924;-88
2023/09/11 03:23:55;;;;;;;;;;;20.30;84.20;;;;;;5023013;28;19917;-87
2023/09/11 03:26:20;;;;;;;;;;;20.20;84.30;;;;;;5016141;28;19955;-88
2023/09/11 03:28:48;;;;;;;;;;;20.10;84.70;;;;;;5032034;28;20328;-88
2023/09/11 03:31:15;;;;;;;;;;;20.10;84.70;;;;;;5034611;28;19923;-88
2023/09/11 03:33:40;;;;;;;;;;;20.10;84.80;;;;;;5042382;28;19960;-88
2023/09/11 03:36:06;;;;;;;;;;;20.00;85.10;;;;;;5044568;28;19959;-89
2023/09/11 03:38:31;;;;;;;;;;;20.00;85.20;;;;;;5018518;28;20470;-87
2023/09/11 03:40:57;;;;;;;;;;;20.00;85.30;;;;;;5017993;28;19917;-88
2023/09/11 03:43:23;;;;;;;;;;;20.00;85.00;;;;;;5030273;28;19936;-87
2023/09/11 03:45:48;;;;;;;;;;;20.00;85.30;;;;;;5018205;28;19963;-89
2023/09/11 03:48:14;;;;;;;;;;;20.00;85.50;;;;;;5016747;28;19913;-87
2023/09/11 03:50:39;;;;;;;;;;;20.00;85.00;;;;;;5020173;28;19920;-89
2023/09/11 03:53:05;;;;;;;;;;;20.00;84.90;;;;;;5040605;28;19917;-88
2023/09/11 03:55:30;;;;;;;;;;;20.00;84.90;;;;;;5023799;28;19936;-89
2023/09/11 03:57:56;;;;;;;;;;;20.10;84.80;;;;;;5038897;28;19916;-88
2023/09/11 04:00:21;;;;;;;;;;;20.10;84.90;;;;;;5022508;28;20313;-88
2023/09/11 04:02:46;;;;;;;;;;;20.00;84.80;;;;;;5038177;28;19960;-88
2023/09/11 04:05:12;;;;;;;;;;;20.10;84.80;;;;;;5027417;28;20366;-88
2023/09/11 04:07:37;;;;;;;;;;;20.10;84.90;;;;;;5030757;28;19963;-88
2023/09/11 04:10:03;;;;;;;;;;;20.10;85.30;;;;;;5059292;28;19948;-89
2023/09/11 04:12:28;;;;;;;;;;;20.10;84.80;;;;;;5049153;28;19902;-87
2023/09/11 04:14:54;;;;;;;;;;;20.10;84.80;;;;;;5028191;28;20062;-88
2023/09/11 04:17:19;;;;;;;;;;;20.10;84.80;;;;;;5031902;28;20316;-87
2023/09/11 04:19:45;;;;;;;;;;;20.10;84.90;;;;;;5025558;28;19987;-87
2023/09/11 04:22:11;;;;;;;;;;;20.10;84.60;;;;;;5022155;28;19917;-87
2023/09/11 04:24:36;;;;;;;;;;;20.10;85.00;;;;;;5027784;28;19962;-87
2023/09/11 04:27:02;;;;;;;;;;;20.00;85.20;;;;;;5042839;28;19921;-87
2023/09/11 04:29:29;;;;;;;;;;;20.00;85.20;;;;;;5020347;28;20001;-87
2023/09/11 04:31:54;;;;;;;;;;;20.00;85.40;;;;;;5043442;28;19917;-87
2023/09/11 04:34:20;;;;;;;;;;;20.00;85.50;;;;;;5027095;28;19920;-87
2023/09/11 04:36:45;;;;;;;;;;;19.90;85.40;;;;;;5039790;28;19920;-87
2023/09/11 04:39:14;;;;;;;;;;;19.80;85.50;;;;;;5016053;28;20259;-87
2023/09/11 04:41:39;;;;;;;;;;;19.80;85.80;;;;;;5019027;28;19935;-87
2023/09/11 04:44:05;;;;;;;;;;;19.80;85.50;;;;;;5015239;28;20069;-88
2023/09/11 04:46:31;;;;;;;;;;;19.80;85.90;;;;;;5022431;28;19921;-87
2023/09/11 04:48:57;;;;;;;;;;;19.80;86.10;;;;;;5020245;28;19924;-87
2023/09/11 04:51:22;;;;;;;;;;;19.80;86.00;;;;;;5018455;28;19917;-86
2023/09/11 04:53:48;;;;;;;;;;;19.70;86.00;;;;;;5039591;28;19913;-87
2023/09/11 04:56:13;;;;;;;;;;;19.60;86.00;;;;;;5017634;28;20394;-87
2023/09/11 04:58:39;;;;;;;;;;;19.60;85.60;;;;;;5020611;28;19994;-87
2023/09/11 05:01:04;;;;;;;;;;;19.60;86.00;;;;;;5022612;28;19917;-89
2023/09/11 05:03:30;;;;;;;;;;;19.60;86.00;;;;;;5022775;28;19937;-89
2023/09/11 05:05:55;;;;;;;;;;;19.60;86.20;;;;;;5017215;28;19921;-88
2023/09/11 05:08:21;;;;;;;;;;;19.70;86.30;;;;;;5023301;28;19920;-88
2023/09/11 05:10:46;;;;;;;;;;;19.60;86.10;;;;;;5014803;28;19959;-88
2023/09/11 05:13:12;;;;;;;;;;;19.60;86.20;;;;;;5013332;28;19924;-90
2023/09/11 05:15:37;;;;;;;;;;;19.70;86.20;;;;;;5027715;28;19981;-88
2023/09/11 05:18:03;;;;;;;;;;;19.70;86.20;;;;;;5023140;28;19913;-88
2023/09/11 05:20:28;;;;;;;;;;;19.70;86.10;;;;;;5024971;28;20451;-88
2023/09/11 05:22:54;;;;;;;;;;;19.80;86.00;;;;;;5029397;28;19920;-88
2023/09/11 05:25:20;;;;;;;;;;;19.70;85.90;;;;;;5021934;28;19928;-88
2023/09/11 05:27:45;;;;;;;;;;;19.70;85.90;;;;;;5026261;28;19932;-87
2023/09/11 05:30:11;;;;;;;;;;;19.70;85.90;;;;;;5017733;28;20015;-87
2023/09/11 05:32:37;;;;;;;;;;;19.80;85.60;;;;;;5018846;28;19914;-85
2023/09/11 05:35:04;;;;;;;;;;;19.70;85.60;;;;;;5012161;28;19913;-88
2023/09/11 05:37:30;;;;;;;;;;;19.80;85.70;;;;;;5033837;28;20646;-88
2023/09/11 05:39:55;;;;;;;;;;;19.70;85.80;;;;;;5011380;28;20024;-86
2023/09/11 05:42:21;;;;;;;;;;;19.80;85.80;;;;;;5023979;28;19975;-87
2023/09/11 05:44:48;;;;;;;;;;;19.80;85.70;;;;;;5045679;28;20012;-88
2023/09/11 05:47:13;;;;;;;;;;;19.80;85.70;;;;;;5037134;28;19916;-87
2023/09/11 05:49:39;;;;;;;;;;;19.90;85.70;;;;;;5015080;28;19913;-87
2023/09/11 05:52:05;;;;;;;;;;;19.90;85.70;;;;;;5039295;28;20301;-87
2023/09/11 05:54:30;;;;;;;;;;;20.00;85.50;;;;;;5020400;28;19913;-87
2023/09/11 05:56:56;;;;;;;;;;;20.00;85.50;;;;;;5034552;28;19920;-88
2023/09/11 05:59:21;;;;;;;;;;;20.00;85.40;;;;;;5044656;28;19925;-88
2023/09/11 06:01:47;;;;;;;;;;;20.10;85.30;;;;;;5014377;28;19966;-87
2023/09/11 06:04:12;;;;;;;;;;;20.10;85.00;;;;;;5019503;28;19939;-87
2023/09/11 06:06:38;;;;;;;;;;;20.10;84.80;;;;;;5018564;28;19913;-87
2023/09/11 06:09:07;;;;;;;;;;;20.20;84.20;;;;;;5022850;28;20290;-87
2023/09/11 06:11:36;;;;;;;;;;;20.30;83.70;;;;;;5017120;28;20010;-87
2023/09/11 06:14:03;;;;;;;;;;;20.30;83.60;;;;;;5051481;28;19928;-87
2023/09/11 06:16:29;;;;;;;;;;;20.30;83.50;;;;;;5027395;28;20188;-87
2023/09/11 06:18:55;;;;;;;;;;;20.40;83.40;;;;;;5018387;28;20011;-87
2023/09/11 06:21:20;;;;;;;;;;;20.50;83.30;;;;;;5047009;28;19999;-87
2023/09/11 06:23:46;;;;;;;;;;;20.50;82.70;;;;;;5027869;28;19913;-86
2023/09/11 06:26:11;;;;;;;;;;;20.60;82.70;;;;;;5037630;28;20416;-87
2023/09/11 06:28:37;;;;;;;;;;;20.60;82.10;;;;;;5018857;28;19920;-87
2023/09/11 06:31:03;;;;;;;;;;;20.70;81.90;;;;;;5016122;28;19921;-87
2023/09/11 06:33:28;;;;;;;;;;;20.70;82.10;;;;;;5022279;28;20035;-86
2023/09/11 06:35:54;;;;;;;;;;;20.70;82.50;;;;;;5022665;28;20557;-87
2023/09/11 06:38:20;;;;;;;;;;;20.70;82.40;;;;;;5034381;28;20293;-86
2023/09/11 06:40:45;;;;;;;;;;;20.80;81.80;;;;;;5036915;28;19921;-87
2023/09/11 06:43:11;;;;;;;;;;;20.90;81.30;;;;;;5031799;28;20004;-86
2023/09/11 06:45:38;;;;;;;;;;;21.00;81.20;;;;;;5017796;28;19920;-86
2023/09/11 06:48:04;;;;;;;;;;;21.10;79.80;;;;;;5018826;28;19921;-87
2023/09/11 06:50:30;;;;;;;;;;;21.10;79.80;;;;;;5022738;28;19916;-87
2023/09/11 06:52:55;;;;;;;;;;;21.20;79.70;;;;;;5024665;28;19917;-87
2023/09/11 06:55:21;;;;;;;;;;;21.30;79.00;;;;;;5019114;28;19927;-87
2023/09/11 06:57:59;;;;;;;;;;;21.40;78.10;;;;;;5020612;28;20379;-86
2023/09/11 07:00:25;;;;;;;;;;;21.60;77.50;;;;;;5038668;28;19917;-87
2023/09/11 07:02:50;;;;;;;;;;;21.70;77.10;;;;;;5013476;28;19921;-89
2023/09/11 07:05:16;;;;;;;;;;;21.90;76.40;;;;;;5019316;28;19909;-89
2023/09/11 07:07:42;;;;;;;;;;;22.00;77.00;;;;;;5011149;28;20379;-89
2023/09/11 07:10:11;;;;;;;;;;;21.90;77.60;;;;;;5032506;28;20437;-88
2023/09/11 07:12:37;;;;;;;;;;;21.90;77.90;;;;;;5034672;28;19920;-88
2023/09/11 07:15:03;;;;;;;;;;;21.90;78.20;;;;;;5026219;28;20386;-89
2023/09/11 07:17:29;;;;;;;;;;;22.10;77.20;;;;;;5043429;28;19917;-89
2023/09/11 07:19:54;;;;;;;;;;;22.10;76.80;;;;;;5036558;28;19917;-90
2023/09/11 07:22:19;;;;;;;;;;;22.10;77.60;;;;;;5027692;28;19994;-89
2023/09/11 07:24:45;;;;;;;;;;;22.20;76.70;;;;;;5018771;28;19999;-89
2023/09/11 07:27:10;;;;;;;;;;;22.20;76.30;;;;;;5018344;28;19909;-88
2023/09/11 07:29:36;;;;;;;;;;;22.30;76.50;;;;;;5018913;28;19917;-89
2023/09/11 07:32:01;;;;;;;;;;;22.30;76.50;;;;;;5023631;28;19953;-88
2023/09/11 07:34:27;;;;;;;;;;;22.40;76.70;;;;;;5031137;28;19913;-88
2023/09/11 07:36:52;;;;;;;;;;;22.50;76.90;;;;;;5015021;28;19917;-89
2023/09/11 07:39:19;;;;;;;;;;;22.60;76.40;;;;;;5011728;28;19921;-89
2023/09/11 07:41:45;;;;;;;;;;;22.60;76.00;;;;;;5016323;28;19982;-88
2023/09/11 07:44:10;;;;;;;;;;;22.80;75.10;;;;;;5017793;28;20390;-89
2023/09/11 07:46:36;;;;;;;;;;;22.90;73.90;;;;;;5021803;28;19959;-90
2023/09/11 07:49:01;;;;;;;;;;;23.10;73.90;;;;;;5016761;28;19917;-87
2023/09/11 07:51:27;;;;;;;;;;;23.20;73.00;;;;;;5038814;28;19957;-86
2023/09/11 07:53:52;;;;;;;;;;;23.30;72.10;;;;;;5014705;28;20397;-87
2023/09/11 07:56:17;;;;;;;;;;;23.50;71.70;;;;;;5015420;28;19921;-86
2023/09/11 07:58:43;;;;;;;;;;;23.60;70.80;;;;;;5036586;28;19909;-89
2023/09/11 08:01:08;;;;;;;;;;;23.80;71.50;;;;;;5051598;28;19957;-88
2023/09/11 08:03:34;;;;;;;;;;;23.80;71.50;;;;;;5018304;28;19944;-90
2023/09/11 08:06:00;;;;;;;;;;;24.00;70.70;;;;;;5035748;28;19917;-87
2023/09/11 08:08:26;;;;;;;;;;;23.90;71.30;;;;;;5035849;28;19919;-88
2023/09/11 08:10:52;;;;;;;;;;;23.90;70.70;;;;;;5022093;28;20019;-87
2023/09/11 08:13:17;;;;;;;;;;;24.00;71.00;;;;;;5042150;28;20028;-89
2023/09/11 08:15:43;;;;;;;;;;;24.10;70.90;;;;;;5021535;28;20320;-87
2023/09/11 08:18:15;;;;;;;;;;;24.10;71.60;;;;;;5032447;28;19917;-91
2023/09/11 08:20:42;;;;;;;;;;;24.30;71.50;;;;;;5038964;28;19909;-92
2023/09/11 08:23:15;;;;;;;;;;;24.30;69.60;;;;;;5041875;28;19909;-90
2023/09/11 08:25:41;;;;;;;;;;;24.40;69.60;;;;;;5016408;28;19914;-88
2023/09/11 08:28:07;;;;;;;;;;;24.50;69.70;;;;;;5019895;28;19914;-89
2023/09/11 08:30:33;;;;;;;;;;;24.50;70.10;;;;;;5037910;28;19913;-89
2023/09/11 08:32:58;;;;;;;;;;;24.40;71.60;;;;;;5035814;28;19987;-89
2023/09/11 08:35:24;;;;;;;;;;;24.40;71.30;;;;;;5018981;28;20374;-88
2023/09/11 08:37:51;;;;;;;;;;;24.30;71.30;;;;;;5045526;28;20018;-90
2023/09/11 08:40:17;;;;;;;;;;;24.40;71.10;;;;;;5021846;28;20363;-89
2023/09/11 08:42:42;;;;;;;;;;;24.40;71.50;;;;;;5042835;28;19913;-88
2023/09/11 08:45:08;;;;;;;;;;;24.50;71.30;;;;;;5018953;28;19921;-87
2023/09/11 08:47:34;;;;;;;;;;;24.50;70.10;;;;;;5019173;28;19993;-89
2023/09/11 08:50:03;;;;;;;;;;;24.70;68.90;;;;;;5048781;28;19913;-88
2023/09/11 08:52:29;;;;;;;;;;;25.00;67.50;;;;;;5013392;28;19952;-88
2023/09/11 08:54:56;;;;;;;;;;;25.00;67.80;;;;;;5048662;28;19959;-88
2023/09/11 08:57:24;;;;;;;;;;;25.00;68.10;;;;;;5019533;28;20343;-86
2023/09/11 08:59:52;;;;;;;;;;;25.10;69.60;;;;;;5019015;28;19921;-86
2023/09/11 09:02:19;;;;;;;;;;;25.00;69.10;;;;;;5015296;28;20060;-88
2023/09/11 09:04:45;;;;;;;;;;;25.00;67.90;;;;;;5033948;28;20003;-88
2023/09/11 09:07:10;;;;;;;;;;;25.20;66.00;;;;;;5019592;28;19965;-86
2023/09/11 09:09:36;;;;;;;;;;;25.30;66.20;;;;;;5009930;28;19920;-88
2023/09/11 09:12:02;;;;;;;;;;;25.30;67.00;;;;;;5021575;28;19909;-88
2023/09/11 09:14:28;;;;;;;;;;;25.30;67.10;;;;;;5021183;28;20317;-89
2023/09/11 09:16:53;;;;;;;;;;;25.40;65.80;;;;;;5019516;28;19916;-87
2023/09/11 09:19:19;;;;;;;;;;;25.60;66.90;;;;;;5019098;28;19920;-88
2023/09/11 09:22:03;;;;;;;;;;;25.60;66.10;;;;;;5034322;28;20361;-88
2023/09/11 09:24:28;;;;;;;;;;;25.60;66.80;;;;;;5032781;28;20375;-88
2023/09/11 09:26:57;;;;;;;;;;;25.60;67.80;;;;;;5034633;28;19952;-88
2023/09/11 09:29:23;;;;;;;;;;;25.70;66.00;;;;;;5017230;28;19960;-87
2023/09/11 09:31:49;;;;;;;;;;;25.70;66.20;;;;;;5044864;28;19965;-89
2023/09/11 09:34:14;;;;;;;;;;;25.70;66.40;;;;;;5014551;28;19920;-89
2023/09/11 09:36:52;;;;;;;;;;;25.80;65.80;;;;;;5013040;28;20344;-88
2023/09/11 09:39:19;;;;;;;;;;;25.90;65.70;;;;;;5014246;28;19933;-89
2023/09/11 09:41:55;;;;;;;;;;;26.00;61.60;;;;;;5024599;28;19917;-89
2023/09/11 09:44:36;;;;;;;;;;;26.40;59.00;;;;;;5035977;28;19913;-90
2023/09/11 09:47:05;;;;;;;;;;;26.50;59.70;;;;;;5019322;28;20011;-90
2023/09/11 09:49:32;;;;;;;;;;;26.60;58.50;;;;;;5016836;28;20327;-90
2023/09/11 09:51:58;;;;;;;;;;;26.80;58.30;;;;;;5034063;28;20060;-91
2023/09/11 09:54:39;;;;;;;;;;;26.90;58.80;;;;;;5037939;28;19910;-90
2023/09/11 09:57:08;;;;;;;;;;;26.80;59.40;;;;;;5035353;28;20354;-89
2023/09/11 09:59:33;;;;;;;;;;;26.80;58.60;;;;;;5016934;28;20005;-88
2023/09/11 10:01:59;;;;;;;;;;;26.80;59.50;;;;;;5022973;28;20340;-88
2023/09/11 10:04:25;;;;;;;;;;;26.80;58.60;;;;;;5020931;28;19917;-88
2023/09/11 10:06:54;;;;;;;;;;;26.80;58.60;;;;;;5018620;28;19934;-88
2023/09/11 10:09:20;;;;;;;;;;;26.80;59.80;;;;;;5015700;28;19909;-89
2023/09/11 10:11:45;;;;;;;;;;;26.70;60.70;;;;;;5037088;28;19916;-91
2023/09/11 10:14:11;;;;;;;;;;;26.70;59.20;;;;;;5043604;28;19950;-90
2023/09/11 10:16:36;;;;;;;;;;;26.70;59.60;;;;;;5011898;28;19936;-90
2023/09/11 10:19:03;;;;;;;;;;;26.70;59.70;;;;;;5042753;28;20438;-90
2023/09/11 10:21:29;;;;;;;;;;;26.80;58.70;;;;;;5017297;28;19920;-90
2023/09/11 10:23:55;;;;;;;;;;;26.90;58.90;;;;;;5015392;28;19910;-89
2023/09/11 10:26:23;;;;;;;;;;;26.90;59.40;;;;;;5041192;28;19908;-91
2023/09/11 10:28:49;;;;;;;;;;;27.00;60.80;;;;;;5039842;28;19906;-91
2023/09/11 10:31:19;;;;;;;;;;;27.00;57.70;;;;;;5031660;28;19929;-90
2023/09/11 10:33:46;;;;;;;;;;;27.10;57.80;;;;;;5025080;28;20278;-90
2023/09/11 10:36:13;;;;;;;;;;;27.00;58.40;;;;;;5017049;28;19909;-90
2023/09/11 10:38:39;;;;;;;;;;;27.20;57.90;;;;;;5016440;28;19924;-90
2023/09/11 10:41:05;;;;;;;;;;;27.10;57.10;;;;;;5012323;28;20385;-90
2023/09/11 10:43:31;;;;;;;;;;;27.20;58.30;;;;;;5013731;28;19910;-90
2023/09/11 10:45:56;;;;;;;;;;;27.10;57.60;;;;;;5015635;28;20015;-90
2023/09/11 10:48:25;;;;;;;;;;;27.20;58.80;;;;;;5013956;28;19953;-90
2023/09/11 10:50:51;;;;;;;;;;;27.10;59.60;;;;;;5012751;28;19951;-90
2023/09/11 10:53:16;;;;;;;;;;;27.10;59.80;;;;;;5020813;28;19909;-90
2023/09/11 10:55:42;;;;;;;;;;;27.10;58.60;;;;;;5016165;28;20016;-90
2023/09/11 10:58:08;;;;;;;;;;;27.10;58.00;;;;;;5033305;28;20275;-90
2023/09/11 11:00:37;;;;;;;;;;;27.20;58.20;;;;;;5032452;28;20004;-90
2023/09/11 11:03:03;;;;;;;;;;;27.20;59.60;;;;;;5015425;28;20132;-91
2023/09/11 11:05:28;;;;;;;;;;;27.10;60.50;;;;;;5016159;28;20356;-91
2023/09/11 11:07:55;;;;;;;;;;;27.30;58.70;;;;;;5015057;28;20083;-90
2023/09/11 11:10:20;;;;;;;;;;;27.40;58.50;;;;;;5016529;28;19916;-90
2023/09/11 11:12:46;;;;;;;;;;;27.60;56.70;;;;;;5015613;28;19913;-90
2023/09/11 11:15:21;;;;;;;;;;;27.80;57.60;;;;;;5017637;28;19909;-90
2023/09/11 11:18:03;;;;;;;;;;;27.80;56.80;;;;;;5016526;28;20012;-90
2023/09/11 11:20:29;;;;;;;;;;;27.80;56.90;;;;;;5020887;28;19913;-90
2023/09/11 11:23:04;;;;;;;;;;;27.90;56.50;;;;;;5025086;28;19967;-91
2023/09/11 11:25:30;;;;;;;;;;;28.10;55.80;;;;;;5015851;28;19909;-90
2023/09/11 11:28:00;;;;;;;;;;;28.20;54.40;;;;;;5015774;28;19955;-90
2023/09/11 11:30:26;;;;;;;;;;;28.30;55.30;;;;;;5014666;28;19909;-91
2023/09/11 11:32:52;;;;;;;;;;;28.30;53.80;;;;;;5018099;28;19909;-89
2023/09/11 11:35:18;;;;;;;;;;;28.30;54.20;;;;;;5023707;28;20035;-90
2023/09/11 11:37:44;;;;;;;;;;;28.30;55.00;;;;;;5019918;28;19910;-90
2023/09/11 11:40:09;;;;;;;;;;;28.40;54.30;;;;;;5018285;28;19928;-90
2023/09/11 11:42:38;;;;;;;;;;;28.50;52.20;;;;;;5016917;28;19909;-90
2023/09/11 11:45:04;;;;;;;;;;;28.80;51.40;;;;;;5033530;28;19932;-91
2023/09/11 11:47:33;;;;;;;;;;;28.80;50.30;;;;;;5027674;28;19932;-92
2023/09/11 11:50:11;;;;;;;;;;;28.80;51.90;;;;;;5019407;28;19909;-91
2023/09/11 11:52:36;;;;;;;;;;;28.80;52.00;;;;;;5039962;28;20460;-91
2023/09/11 11:55:16;;;;;;;;;;;28.90;52.30;;;;;;5019663;28;19925;-89
2023/09/11 11:57:41;;;;;;;;;;;29.00;49.90;;;;;;5013708;28;19924;-91
2023/09/11 12:00:10;;;;;;;;;;;29.10;50.30;;;;;;5020141;28;19924;-90
2023/09/11 12:02:36;;;;;;;;;;;29.00;51.20;;;;;;5016631;28;20007;-90
2023/09/11 12:05:10;;;;;;;;;;;29.00;50.00;;;;;;5029215;28;20404;-91
2023/09/11 12:07:35;;;;;;;;;;;29.00;51.10;;;;;;5009155;28;19913;-89
2023/09/11 12:10:01;;;;;;;;;;;29.00;51.20;;;;;;5015026;28;20444;-88
2023/09/11 12:12:27;;;;;;;;;;;29.10;49.10;;;;;;5018774;28;20397;-89
2023/09/11 12:14:53;;;;;;;;;;;29.10;49.50;;;;;;5015685;28;20027;-86
2023/09/11 12:17:19;;;;;;;;;;;29.20;49.70;;;;;;5033135;28;19921;-87
2023/09/11 12:19:44;;;;;;;;;;;29.30;50.30;;;;;;5048791;28;19913;-88
2023/09/11 12:22:10;;;;;;;;;;;29.40;50.00;;;;;;5015840;28;19959;-89
2023/09/11 12:24:35;;;;;;;;;;;29.30;50.60;;;;;;5028174;28;19928;-87
2023/09/11 12:27:01;;;;;;;;;;;29.30;50.10;;;;;;5060679;28;19927;-88
2023/09/11 12:29:29;;;;;;;;;;;29.30;50.90;;;;;;5020483;28;19913;-86
2023/09/11 12:31:54;;;;;;;;;;;29.20;51.80;;;;;;5032541;28;19936;-85
2023/09/11 12:34:19;;;;;;;;;;;29.20;52.20;;;;;;5010389;28;19999;-85
2023/09/11 12:36:45;;;;;;;;;;;29.10;52.20;;;;;;5024273;28;19932;-86
2023/09/11 12:39:10;;;;;;;;;;;29.00;52.20;;;;;;5020346;28;19919;-86
2023/09/11 12:41:36;;;;;;;;;;;29.20;50.20;;;;;;5034494;28;19967;-86
2023/09/11 12:44:02;;;;;;;;;;;29.30;49.90;;;;;;5016949;28;19916;-85
2023/09/11 12:46:27;;;;;;;;;;;29.30;49.60;;;;;;5018567;28;19915;-86
2023/09/11 12:48:53;;;;;;;;;;;29.40;48.90;;;;;;5019654;28;20015;-85
2023/09/11 12:51:18;;;;;;;;;;;29.40;48.90;;;;;;5015609;28;20412;-85
2023/09/11 12:53:47;;;;;;;;;;;29.50;49.60;;;;;;5016712;28;20015;-86
2023/09/11 12:56:18;;;;;;;;;;;29.50;49.00;;;;;;5019328;28;19920;-87
2023/09/11 12:58:44;;;;;;;;;;;29.60;48.90;;;;;;5018963;28;20356;-87
2023/09/11 13:01:10;;;;;;;;;;;29.50;49.40;;;;;;5021273;28;20007;-86
2023/09/11 13:03:35;;;;;;;;;;;29.60;49.10;;;;;;5019526;28;19978;-87
2023/09/11 13:06:00;;;;;;;;;;;29.60;49.50;;;;;;5037549;28;19920;-87
2023/09/11 13:08:28;;;;;;;;;;;29.50;50.10;;;;;;5012006;28;20015;-87
2023/09/11 13:10:53;;;;;;;;;;;29.60;49.40;;;;;;5018167;28;20008;-87
2023/09/11 13:13:19;;;;;;;;;;;29.50;49.80;;;;;;5015505;28;20017;-87
2023/09/11 13:15:44;;;;;;;;;;;29.60;50.20;;;;;;5025939;28;19914;-87
2023/09/11 13:18:09;;;;;;;;;;;29.50;51.30;;;;;;5015069;28;19921;-87
2023/09/11 13:20:35;;;;;;;;;;;29.60;51.00;;;;;;5032097;28;19917;-87
2023/09/11 13:23:02;;;;;;;;;;;29.60;50.30;;;;;;5021509;28;19917;-87
2023/09/11 13:25:27;;;;;;;;;;;29.70;49.70;;;;;;5023114;28;19932;-87
2023/09/11 13:27:53;;;;;;;;;;;29.60;50.40;;;;;;5019992;28;20331;-87
2023/09/11 13:30:19;;;;;;;;;;;29.70;50.80;;;;;;5023551;28;19927;-87
2023/09/11 13:32:45;;;;;;;;;;;29.80;50.80;;;;;;5037204;28;19917;-87
2023/09/11 13:35:10;;;;;;;;;;;29.90;51.70;;;;;;5029737;28;19893;-86
2023/09/11 13:37:36;;;;;;;;;;;29.90;50.60;;;;;;5051607;28;19980;-87
2023/09/11 13:40:02;;;;;;;;;;;29.90;51.10;;;;;;5040024;28;19914;-86
2023/09/11 13:42:27;;;;;;;;;;;29.80;51.30;;;;;;5025501;28;19916;-87
2023/09/11 13:44:53;;;;;;;;;;;29.70;50.40;;;;;;5023478;28;19917;-87
2023/09/11 13:47:19;;;;;;;;;;;29.70;50.70;;;;;;5023905;28;19936;-88
2023/09/11 13:49:44;;;;;;;;;;;29.80;50.70;;;;;;5054967;28;20379;-88
2023/09/11 13:52:10;;;;;;;;;;;29.80;50.60;;;;;;5040548;28;20267;-87
2023/09/11 13:54:35;;;;;;;;;;;29.90;50.10;;;;;;5018636;28;19909;-87
2023/09/11 13:57:01;;;;;;;;;;;29.80;50.70;;;;;;5023933;28;20385;-87
2023/09/11 13:59:26;;;;;;;;;;;29.70;50.70;;;;;;5022628;28;20331;-87
2023/09/11 14:01:52;;;;;;;;;;;29.60;51.20;;;;;;5021254;28;19921;-87
2023/09/11 14:04:17;;;;;;;;;;;29.60;51.40;;;;;;5035593;28;19913;-87
2023/09/11 14:06:42;;;;;;;;;;;29.60;50.90;;;;;;5020264;28;19960;-88
2023/09/11 14:09:08;;;;;;;;;;;29.50;51.20;;;;;;5017679;28;19917;-88
2023/09/11 14:11:33;;;;;;;;;;;29.50;50.80;;;;;;5015626;28;19913;-87